Time;durP1;ratioP1;P1;durP2;ratioP2;P2;SDS_P1;SDS_P2;PMS_P1;PMS_P2;Temp;Humidity;BMP_temperature;BMP_pressure;BME280_temperature;BME280_humidity;BME280_pressure;Samples;Min_cycle;Max_cycle;Signal;HPM_P1;HPM_P2
2022/05/22 00:00:13;;;;;;;17.83;9.57;;;;;;;9.96;nan;101827.41;5035001;28;20025;-47
2022/05/22 00:02:40;;;;;;;18.67;9.43;;;;;;;9.84;nan;101792.50;5034683;28;20048;-50
2022/05/22 00:05:06;;;;;;;21.77;9.65;;;;;;;9.75;nan;101788.25;5052956;28;20033;-47
2022/05/22 00:07:31;;;;;;;16.98;9.50;;;;;;;10.05;nan;101836.94;5052723;28;20040;-51
2022/05/22 00:09:56;;;;;;;20.45;9.55;;;;;;;9.68;nan;101769.97;5052813;28;20037;-48
2022/05/22 00:12:22;;;;;;;19.08;9.13;;;;;;;10.04;nan;101829.94;5034897;28;20538;-48
2022/05/22 00:14:47;;;;;;;15.90;9.13;;;;;;;10.01;nan;101822.94;5052475;28;20111;-50
2022/05/22 00:17:13;;;;;;;19.90;9.63;;;;;;;10.01;nan;101827.38;5052465;28;20124;-54
2022/05/22 00:19:38;;;;;;;17.70;10.25;;;;;;;9.97;nan;101823.03;5052508;28;20033;-50
2022/05/22 00:22:05;;;;;;;21.45;9.20;;;;;;;9.66;nan;101766.50;5052556;28;20029;-49
2022/05/22 00:24:31;;;;;;;21.10;10.10;;;;;;;9.58;nan;101762.22;5051282;28;20064;-52
2022/05/22 00:26:57;;;;;;;20.02;10.13;;;;;;;9.63;nan;101764.78;5018017;28;20057;-46
2022/05/22 00:29:23;;;;;;;14.98;9.25;;;;;;;9.72;nan;101779.56;5052329;28;20040;-47
2022/05/22 00:31:48;;;;;;;15.75;8.57;;;;;;;9.89;nan;101824.91;5052120;28;20041;-48
2022/05/22 00:34:14;;;;;;;19.42;9.35;;;;;;;9.85;nan;101829.31;5034608;28;20040;-46
2022/05/22 00:36:40;;;;;;;17.83;9.25;;;;;;;9.80;nan;101828.53;5033471;28;20415;-48
2022/05/22 00:39:05;;;;;;;21.00;9.63;;;;;;;9.43;nan;101772.91;5052345;28;20025;-49
2022/05/22 00:41:32;;;;;;;15.38;9.32;;;;;;;9.45;nan;101773.78;5034302;28;20040;-47
2022/05/22 00:43:59;;;;;;;19.08;9.77;;;;;;;9.82;nan;101824.09;5052239;28;20037;-48
2022/05/22 00:46:25;;;;;;;17.95;9.85;;;;;;;9.72;nan;101811.97;5051946;28;20041;-49
2022/05/22 00:48:54;;;;;;;22.02;9.43;;;;;;;9.78;nan;101829.44;5052017;28;20033;-49
2022/05/22 00:51:25;;;;;;;20.55;9.38;;;;;;;9.43;nan;101758.91;5052059;28;20036;-45
2022/05/22 00:54:36;;;;;;;17.92;9.38;;;;;;;9.70;nan;101810.25;5051967;28;20032;-47
2022/05/22 00:57:10;;;;;;;19.05;8.77;;;;;;;9.63;nan;101816.50;5048469;28;20037;-50
2022/05/22 00:59:41;;;;;;;16.27;9.25;;;;;;;9.61;nan;101822.63;5033754;28;20029;-49
2022/05/22 01:02:07;;;;;;;15.65;9.35;;;;;;;9.24;nan;101752.16;5034182;28;20029;-47
2022/05/22 01:04:34;;;;;;;17.75;9.38;;;;;;;9.22;nan;101753.94;5034292;28;20024;-51
2022/05/22 01:07:01;;;;;;;21.63;9.15;;;;;;;9.43;nan;101785.19;5034064;28;20025;-47
2022/05/22 01:09:26;;;;;;;16.65;8.73;;;;;;;9.58;nan;101820.03;5034039;28;20048;-49
2022/05/22 01:11:55;;;;;;;18.25;10.20;;;;;;;9.56;nan;101821.81;5051771;28;20044;-49
2022/05/22 01:14:22;;;;;;;17.25;9.18;;;;;;;9.54;nan;101833.25;5034148;28;20043;-50
2022/05/22 01:16:50;;;;;;;16.77;9.32;;;;;;;9.18;nan;101766.25;5051871;28;20040;-53
2022/05/22 01:19:18;;;;;;;25.60;10.77;;;;;;;9.20;nan;101771.47;5051764;28;20269;-49
2022/05/22 01:21:53;;;;;;;19.80;10.13;;;;;;;9.18;nan;101770.63;5051593;28;20040;-53
2022/05/22 01:24:19;;;;;;;20.55;9.63;;;;;;;9.38;nan;101811.53;5051953;28;20143;-47
2022/05/22 01:26:44;;;;;;;15.88;8.73;;;;;;;9.11;nan;101763.72;5034062;28;20079;-51
2022/05/22 01:29:10;;;;;;;17.85;9.45;;;;;;;9.16;nan;101773.28;5017570;28;20128;-49
2022/05/22 01:31:35;;;;;;;20.67;9.82;;;;;;;9.34;nan;101809.81;5051647;28;20147;-47
2022/05/22 01:34:00;;;;;;;20.95;10.43;;;;;;;8.99;nan;101752.44;5051671;28;20396;-47
2022/05/22 01:36:25;;;;;;;18.92;10.80;;;;;;;9.28;nan;101798.53;5051485;28;20396;-50
2022/05/22 01:38:51;;;;;;;20.23;10.65;;;;;;;9.20;nan;101785.47;5051868;28;20120;-49
2022/05/22 01:41:16;;;;;;;25.10;11.00;;;;;;;9.24;nan;101797.69;5051564;28;20530;-48
2022/05/22 01:43:41;;;;;;;20.08;10.30;;;;;;;9.19;nan;101788.13;5051630;28;20040;-48
2022/05/22 01:46:07;;;;;;;22.08;11.50;;;;;;;8.85;nan;101728.09;5033740;28;20048;-53
2022/05/22 01:48:33;;;;;;;19.63;11.55;;;;;;;8.84;nan;101725.50;5055117;28;20376;-46
2022/05/22 01:50:58;;;;;;;21.85;12.15;;;;;;;9.10;nan;101775.97;5055167;28;20052;-46
2022/05/22 01:53:24;;;;;;;19.17;12.02;;;;;;;9.09;nan;101771.59;5055366;28;20068;-46
2022/05/22 01:55:50;;;;;;;24.15;11.85;;;;;;;9.09;nan;101784.72;5055304;28;20491;-49
2022/05/22 01:58:15;;;;;;;20.27;10.48;;;;;;;8.67;nan;101704.66;5055223;28;20025;-48
2022/05/22 02:00:41;;;;;;;19.67;11.98;;;;;;;9.05;nan;101760.25;5037340;28;20033;-49
2022/05/22 02:03:07;;;;;;;20.33;10.93;;;;;;;8.88;nan;101728.06;5037038;28;20037;-49
2022/05/22 02:05:33;;;;;;;22.35;11.07;;;;;;;9.01;nan;101763.81;5055097;28;20140;-46
2022/05/22 02:10:43;;;;;;;22.45;11.68;;;;;;;8.85;nan;101725.47;5054880;28;20051;-47
2022/05/22 02:13:09;;;;;;;20.85;11.95;;;;;;;8.79;nan;101729.91;5036999;28;20124;-47
2022/05/22 02:15:34;;;;;;;20.17;11.38;;;;;;;8.90;nan;101752.53;5054841;28;20051;-46
2022/05/22 02:17:59;;;;;;;25.95;13.43;;;;;;;8.96;nan;101760.34;5036925;28;20585;-46
2022/05/22 02:20:25;;;;;;;19.63;10.60;;;;;;;8.67;nan;101711.69;5054927;28;20392;-49
2022/05/22 02:22:53;;;;;;;21.42;11.02;;;;;;;8.93;nan;101763.00;5054693;28;20258;-47
2022/05/22 02:25:21;;;;;;;21.58;11.45;;;;;;;8.91;nan;101753.41;5054681;28;20040;-47
2022/05/22 02:27:46;;;;;;;19.42;11.80;;;;;;;8.87;nan;101751.72;5054577;28;20041;-48
2022/05/22 02:30:15;;;;;;;20.50;11.80;;;;;;;8.61;nan;101693.41;5036775;28;20482;-46
2022/05/22 02:32:40;;;;;;;20.83;11.80;;;;;;;8.84;nan;101741.25;5054426;28;20120;-48
2022/05/22 02:35:09;;;;;;;25.75;11.93;;;;;;;8.84;nan;101741.25;5054495;28;20560;-46
2022/05/22 02:37:49;;;;;;;20.23;12.68;;;;;;;8.86;nan;101750.84;5054518;28;20112;-48
2022/05/22 02:40:17;;;;;;;26.60;12.13;;;;;;;8.86;nan;101736.84;5054342;28;20025;-49
2022/05/22 02:42:44;;;;;;;23.10;11.95;;;;;;;8.58;nan;101688.19;5035668;28;20029;-51
2022/05/22 02:45:11;;;;;;;24.77;12.63;;;;;;;8.82;nan;101743.00;5053645;28;20033;-47
2022/05/22 02:47:37;;;;;;;22.27;12.68;;;;;;;8.68;nan;101710.78;5036455;28;20037;-46
2022/05/22 02:50:04;;;;;;;23.92;13.40;;;;;;;8.81;nan;101743.91;5054296;28;20037;-50
2022/05/22 02:52:29;;;;;;;22.15;12.75;;;;;;;8.80;nan;101727.28;5036457;28;20122;-51
2022/05/22 02:54:55;;;;;;;24.17;12.07;;;;;;;8.66;nan;101712.56;5036276;28;20445;-48
2022/05/22 02:57:22;;;;;;;23.38;11.88;;;;;;;8.80;nan;101745.66;5053878;28;20063;-48
2022/05/22 02:59:52;;;;;;;23.73;12.38;;;;;;;8.79;nan;101743.03;5052990;28;20472;-50
2022/05/22 03:02:17;;;;;;;22.38;13.23;;;;;;;8.81;nan;101746.53;5054017;28;20041;-50
2022/05/22 03:04:43;;;;;;;19.10;11.10;;;;;;;8.49;nan;101679.50;5053865;28;20037;-50
2022/05/22 03:07:11;;;;;;;25.23;11.75;;;;;;;8.74;nan;101744.84;5036187;28;20120;-48
2022/05/22 03:09:38;;;;;;;22.02;11.93;;;;;;;8.73;nan;101735.22;5036076;28;20028;-49
2022/05/22 03:12:12;;;;;;;22.02;11.32;;;;;;;8.45;nan;101683.06;5035829;28;20036;-47
2022/05/22 03:14:44;;;;;;;20.50;11.65;;;;;;;8.46;nan;101679.53;5036095;28;20033;-49
2022/05/22 03:17:10;;;;;;;18.52;11.05;;;;;;;8.68;nan;101718.66;5053746;28;20044;-50
2022/05/22 03:19:36;;;;;;;22.27;12.02;;;;;;;8.59;nan;101713.50;5053697;28;20033;-49
2022/05/22 03:22:02;;;;;;;20.15;11.43;;;;;;;8.64;nan;101719.59;5053555;28;20041;-46
2022/05/22 03:24:27;;;;;;;23.40;11.90;;;;;;;8.29;nan;101655.22;5053719;28;20049;-46
2022/05/22 03:26:53;;;;;;;22.73;12.57;;;;;;;8.37;nan;101661.28;5053267;28;20192;-46
2022/05/22 03:29:18;;;;;;;21.88;11.18;;;;;;;8.68;nan;101719.53;5053435;28;20048;-47
2022/05/22 03:31:43;;;;;;;21.17;11.90;;;;;;;8.67;nan;101711.69;5035640;28;20443;-46
2022/05/22 03:34:09;;;;;;;21.95;11.23;;;;;;;8.64;nan;101709.94;5053402;28;20079;-46
2022/05/22 03:36:38;;;;;;;23.65;12.30;;;;;;;8.65;nan;101706.47;5053404;28;20051;-46
2022/05/22 03:39:04;;;;;;;19.70;11.73;;;;;;;8.63;nan;101703.00;5036203;28;20040;-48
2022/05/22 03:41:30;;;;;;;23.95;11.43;;;;;;;8.57;nan;101696.94;5053133;28;20079;-47
2022/05/22 03:43:55;;;;;;;22.48;11.52;;;;;;;8.35;nan;101664.78;5053147;28;20091;-48
2022/05/22 03:46:20;;;;;;;21.58;11.82;;;;;;;8.34;nan;101653.44;5053343;28;20101;-48
2022/05/22 03:48:45;;;;;;;20.52;11.85;;;;;;;8.32;nan;101635.97;5035496;28;20064;-48
2022/05/22 03:51:11;;;;;;;20.30;11.38;;;;;;;8.29;nan;101629.00;5051938;28;20472;-48
2022/05/22 03:53:36;;;;;;;24.55;12.00;;;;;;;8.32;nan;101628.09;5033552;28;20442;-47
2022/05/22 03:56:11;;;;;;;20.67;11.15;;;;;;;8.64;nan;101693.38;5052807;28;20064;-50
2022/05/22 03:58:36;;;;;;;19.88;12.13;;;;;;;8.70;nan;101688.91;5052031;28;20427;-48
2022/05/22 04:01:01;;;;;;;20.60;11.27;;;;;;;8.73;nan;101691.47;5052315;28;20029;-47
2022/05/22 04:03:26;;;;;;;20.70;12.35;;;;;;;8.74;nan;101687.09;5064109;28;20090;-48
2022/05/22 04:05:52;;;;;;;23.15;12.38;;;;;;;8.79;nan;101682.66;5056088;28;20131;-47
2022/05/22 04:08:17;;;;;;;21.27;11.88;;;;;;;8.51;nan;101623.53;5068851;28;20116;-48
2022/05/22 04:10:42;;;;;;;25.77;12.93;;;;;;;8.89;nan;101689.56;5051393;28;20464;-48
2022/05/22 04:13:08;;;;;;;26.92;12.98;;;;;;;8.87;nan;101665.94;5051565;28;20033;-47
2022/05/22 04:15:33;;;;;;;23.80;12.85;;;;;;;8.96;nan;101678.09;5034612;28;20041;-51
2022/05/22 04:17:58;;;;;;;24.85;11.75;;;;;;;8.71;nan;101621.53;5034626;28;20036;-49
2022/05/22 04:20:24;;;;;;;24.08;12.75;;;;;;;9.02;nan;101672.75;5051972;28;20115;-46
2022/05/22 04:25:33;;;;;;;28.38;12.85;;;;;;;8.77;nan;101614.44;5052403;28;20103;-48
2022/05/22 04:27:58;;;;;;;26.17;12.75;;;;;;;9.19;nan;101677.81;5034692;28;20029;-49
2022/05/22 04:30:24;;;;;;;24.10;12.32;;;;;;;9.20;nan;101680.41;5052376;28;20037;-49
2022/05/22 04:32:50;;;;;;;19.17;11.52;;;;;;;9.23;nan;101676.84;5052266;28;20071;-47
2022/05/22 04:35:17;;;;;;;24.90;13.07;;;;;;;8.93;nan;101625.63;5052816;28;20033;-46
2022/05/22 04:37:43;;;;;;;21.45;12.18;;;;;;;9.26;nan;101682.94;5052088;28;20460;-46
2022/05/22 04:40:10;;;;;;;27.90;13.15;;;;;;;9.34;nan;101690.75;5052463;28;20069;-50
2022/05/22 04:42:36;;;;;;;24.80;12.95;;;;;;;9.41;nan;101684.50;5017900;28;20123;-46
2022/05/22 04:45:03;;;;;;;25.38;12.13;;;;;;;9.44;nan;101679.19;5052201;28;20464;-49
2022/05/22 04:47:29;;;;;;;24.73;13.23;;;;;;;9.15;nan;101603.44;5051940;28;20511;-49
2022/05/22 04:49:54;;;;;;;20.83;12.45;;;;;;;9.27;nan;101613.75;5052058;28;20056;-47
2022/05/22 04:52:19;;;;;;;24.42;11.77;;;;;;;9.05;nan;101558.03;5034060;28;20063;-47
2022/05/22 04:54:47;;;;;;;23.50;11.88;;;;;;;9.73;nan;101663.84;5052664;28;20033;-48
2022/05/22 04:57:12;;;;;;;25.30;11.68;;;;;;;9.50;nan;101600.25;5052200;28;20110;-48
2022/05/22 04:59:37;;;;;;;27.15;12.63;;;;;;;9.89;nan;101662.72;5017906;28;20071;-48
2022/05/22 05:02:03;;;;;;;20.60;11.20;;;;;;;10.00;nan;101665.16;5051940;28;20048;-46
2022/05/22 05:04:28;;;;;;;18.20;9.73;;;;;;;9.80;nan;101612.03;5051953;28;20391;-47
2022/05/22 05:06:54;;;;;;;20.13;10.48;;;;;;;10.16;nan;101671.91;5033809;28;20037;-46
2022/05/22 05:09:21;;;;;;;22.40;10.43;;;;;;;10.16;nan;101662.28;5034115;28;20087;-54
2022/05/22 05:11:46;;;;;;;16.45;9.07;;;;;;;9.99;nan;101616.06;5052055;28;20044;-46
2022/05/22 05:14:12;;;;;;;15.82;10.00;;;;;;;9.96;nan;101603.84;5051954;28;20033;-48
2022/05/22 05:16:37;;;;;;;18.35;9.25;;;;;;;10.03;nan;101602.88;5051962;28;20063;-48
2022/05/22 05:19:02;;;;;;;13.60;8.93;;;;;;;10.42;nan;101658.31;5051800;28;20468;-53
2022/05/22 05:21:28;;;;;;;22.80;9.55;;;;;;;10.49;nan;101667.81;5052279;28;20479;-48
2022/05/22 05:23:55;;;;;;;19.83;8.07;;;;;;;10.50;nan;101662.53;5037953;28;20136;-48
2022/05/22 05:26:21;;;;;;;18.48;8.30;;;;;;;10.65;nan;101664.84;5055946;28;20503;-46
2022/05/22 05:28:47;;;;;;;23.27;8.93;;;;;;;10.81;nan;101669.81;5055822;28;20036;-48
2022/05/22 05:31:12;;;;;;;21.52;12.98;;;;;;;10.97;nan;101669.50;5037898;28;20116;-48
2022/05/22 05:33:38;;;;;;;18.20;10.77;;;;;;;11.06;nan;101658.75;5055658;28;20451;-49
2022/05/22 05:36:08;;;;;;;16.42;8.35;;;;;;;11.07;nan;101638.53;5055581;28;20062;-49
2022/05/22 05:38:33;;;;;;;17.52;8.55;;;;;;;11.47;nan;101664.88;5055726;28;20037;-49
2022/05/22 05:40:58;;;;;;;11.70;7.80;;;;;;;11.63;nan;101669.75;5055659;28;20400;-51
2022/05/22 05:43:24;;;;;;;13.68;7.55;;;;;;;11.55;nan;101615.47;5055450;28;20033;-51
2022/05/22 05:45:50;;;;;;;16.98;8.75;;;;;;;11.97;nan;101659.28;5055491;28;20048;-51
2022/05/22 05:48:16;;;;;;;17.10;9.43;;;;;;;12.13;nan;101667.69;5055451;28;20037;-47
2022/05/22 05:50:42;;;;;;;16.00;8.68;;;;;;;12.26;nan;101669.09;5037691;28;20032;-48
2022/05/22 05:53:07;;;;;;;13.30;7.63;;;;;;;12.42;nan;101670.44;5055423;28;20388;-48
2022/05/22 05:55:33;;;;;;;20.98;9.30;;;;;;;12.55;nan;101666.53;5037359;28;20029;-48
2022/05/22 05:57:58;;;;;;;18.55;8.40;;;;;;;12.73;nan;101666.03;5055251;28;20033;-49
2022/05/22 06:00:24;;;;;;;11.40;6.93;;;;;;;12.90;nan;101671.69;5055115;28;20040;-47
2022/05/22 06:02:50;;;;;;;16.27;7.13;;;;;;;12.80;nan;101627.09;5054992;28;20036;-49
2022/05/22 06:05:16;;;;;;;10.65;6.38;;;;;;;12.96;nan;101626.59;5054865;28;20033;-47
2022/05/22 06:07:41;;;;;;;13.57;6.32;;;;;;;13.33;nan;101670.47;5037246;28;20040;-48
2022/05/22 06:10:08;;;;;;;10.02;7.68;;;;;;;13.48;nan;101667.38;5055010;28;20036;-48
2022/05/22 06:12:34;;;;;;;13.27;6.60;;;;;;;13.27;nan;101604.56;5055095;28;20446;-48
2022/05/22 06:14:59;;;;;;;17.77;7.30;;;;;;;13.77;nan;101661.16;5037049;28;20037;-49
2022/05/22 06:17:33;;;;;;;12.70;6.05;;;;;;;13.84;nan;101665.31;5054583;28;20044;-50
2022/05/22 06:19:59;;;;;;;14.80;6.10;;;;;;;13.72;nan;101618.94;5036846;28;20068;-47
2022/05/22 06:22:32;;;;;;;14.18;7.85;;;;;;;14.10;nan;101657.34;5054752;28;20033;-50
2022/05/22 06:24:58;;;;;;;11.50;5.38;;;;;;;13.93;nan;101607.66;5037145;28;20049;-50
2022/05/22 06:27:24;;;;;;;9.75;5.15;;;;;;;14.33;nan;101675.16;5054555;28;20033;-48
2022/05/22 06:29:49;;;;;;;12.88;6.00;;;;;;;14.18;nan;101610.34;5054589;28;20487;-48
2022/05/22 06:32:16;;;;;;;14.30;7.30;;;;;;;14.76;nan;101693.94;5054159;28;20048;-48
2022/05/22 06:34:42;;;;;;;14.02;4.63;;;;;;;14.53;nan;101628.53;5019009;28;20067;-47
2022/05/22 06:37:17;;;;;;;9.68;5.03;;;;;;;14.76;nan;101642.69;5054413;28;20123;-51
2022/05/22 06:39:53;;;;;;;10.40;4.68;;;;;;;15.33;nan;101684.69;5036395;28;20537;-49
2022/05/22 06:42:28;;;;;;;9.88;5.45;;;;;;;15.15;nan;101630.56;5037899;28;20065;-51
2022/05/22 06:44:56;;;;;;;13.02;5.20;;;;;;;15.72;nan;101705.28;5054151;28;20033;-50
2022/05/22 06:47:23;;;;;;;14.75;4.95;;;;;;;15.60;nan;101641.19;5054593;28;20166;-50
2022/05/22 06:49:49;;;;;;;11.20;4.97;;;;;;;16.05;nan;101700.38;5020136;28;20025;-49
2022/05/22 06:52:15;;;;;;;12.68;5.00;;;;;;;15.90;nan;101650.56;5054202;28;20037;-47
2022/05/22 06:54:40;;;;;;;8.13;4.82;;;;;;;16.40;nan;101722.84;5054005;28;20116;-48
2022/05/22 06:57:05;;;;;;;9.95;4.72;;;;;;;16.59;nan;101717.59;5053917;28;20392;-49
2022/05/22 06:59:31;;;;;;;11.63;4.93;;;;;;;16.71;nan;101720.59;5053856;28;20124;-48
2022/05/22 07:01:59;;;;;;;12.10;4.47;;;;;;;16.77;nan;101724.78;5034695;28;20056;-50
2022/05/22 07:04:24;;;;;;;9.73;4.63;;;;;;;16.88;nan;101735.81;5053802;28;20365;-50
2022/05/22 07:06:50;;;;;;;12.15;4.78;;;;;;;16.54;nan;101677.94;5053448;28;20048;-48
2022/05/22 07:09:16;;;;;;;8.55;4.18;;;;;;;17.03;nan;101731.59;5053505;28;20032;-49
2022/05/22 07:11:43;;;;;;;10.57;4.07;;;;;;;17.17;nan;101726.50;5053532;28;20048;-52
2022/05/22 07:14:09;;;;;;;6.38;3.85;;;;;;;17.33;nan;101706.25;5035620;28;20364;-47
2022/05/22 07:16:36;;;;;;;6.93;3.15;;;;;;;17.49;nan;101715.25;5053580;28;20342;-48
2022/05/22 07:19:02;;;;;;;10.23;3.78;;;;;;;17.21;nan;101658.94;5035531;28;20029;-46
2022/05/22 07:21:28;;;;;;;8.48;3.50;;;;;;;17.66;nan;101709.19;5053590;28;20040;-52
2022/05/22 07:23:53;;;;;;;7.70;2.88;;;;;;;17.85;nan;101725.97;5053469;28;20053;-51
2022/05/22 07:26:21;;;;;;;7.07;3.08;;;;;;;17.99;nan;101711.06;5053349;28;20078;-52
2022/05/22 07:28:46;;;;;;;9.30;3.10;;;;;;;18.31;nan;101693.44;5053528;28;20064;-46
2022/05/22 07:31:15;;;;;;;7.70;3.00;;;;;;;18.81;nan;101738.88;5035926;28;20476;-48
2022/05/22 07:33:41;;;;;;;12.07;4.18;;;;;;;19.14;nan;101746.03;5053373;28;20464;-48
2022/05/22 07:36:06;;;;;;;8.43;3.67;;;;;;;19.37;nan;101700.25;5053258;28;20073;-50
2022/05/22 07:38:31;;;;;;;7.72;3.10;;;;;;;20.15;nan;101743.00;5053259;28;20480;-51
2022/05/22 07:40:57;;;;;;;8.43;3.28;;;;;;;;;;5053049;28;20111;-49
2022/05/22 07:43:22;;;;;;;6.57;3.10;;;;;;;21.29;nan;101735.19;5053234;28;20468;-51
2022/05/22 07:45:47;;;;;;;7.75;2.88;;;;;;;21.69;nan;101746.03;5052870;28;20052;-50
2022/05/22 07:48:13;;;;;;;5.55;2.75;;;;;;;22.07;nan;101749.78;5035216;28;20040;-47
2022/05/22 07:50:39;;;;;;;6.30;3.58;;;;;;;21.94;nan;101697.09;5052735;28;20029;-45
2022/05/22 07:53:05;;;;;;;7.07;2.78;;;;;;;22.19;nan;101700.72;5052944;28;20115;-50
2022/05/22 07:55:30;;;;;;;7.05;3.15;;;;;;;22.56;nan;101707.16;5052804;28;20061;-49
2022/05/22 07:57:56;;;;;;;7.38;2.58;;;;;;;23.06;nan;101741.22;5052793;28;20055;-48
2022/05/22 08:00:21;;;;;;;6.57;2.85;;;;;;;23.35;nan;101745.38;5052927;28;20033;-50
2022/05/22 08:02:47;;;;;;;6.07;3.00;;;;;;;22.93;nan;101705.47;5034935;28;20033;-52
2022/05/22 08:05:15;;;;;;;7.60;3.15;;;;;;;23.11;nan;101722.13;5052793;28;20495;-49
2022/05/22 08:07:41;;;;;;;7.13;3.40;;;;;;;22.95;nan;101735.75;5034764;28;20063;-52
2022/05/22 08:10:08;;;;;;;6.18;3.47;;;;;;;22.73;nan;101685.41;5034792;28;20041;-50
2022/05/22 08:12:42;;;;;;;8.00;4.05;;;;;;;22.78;nan;101679.69;5052740;28;20511;-51
2022/05/22 08:15:08;;;;;;;5.53;3.08;;;;;;;23.34;nan;101721.34;5052664;28;20379;-49
2022/05/22 08:17:38;;;;;;;8.35;3.42;;;;;;;23.35;nan;101674.72;5034617;28;20155;-51
2022/05/22 08:20:07;;;;;;;8.05;2.78;;;;;;;23.48;nan;101687.16;5052522;28;20029;-47
2022/05/22 08:22:34;;;;;;;6.88;2.90;;;;;;;23.76;nan;101717.41;5052236;28;20043;-47
2022/05/22 08:25:02;;;;;;;4.53;2.72;;;;;;;24.02;nan;101711.78;5052521;28;20512;-48
2022/05/22 08:27:28;;;;;;;4.88;2.63;;;;;;;23.81;nan;101680.28;5034424;28;20095;-51
2022/05/22 08:29:54;;;;;;;7.35;3.10;;;;;;;23.96;nan;101712.25;5034752;28;20033;-50
2022/05/22 08:32:20;;;;;;;5.38;2.92;;;;;;;24.02;nan;101705.56;5034575;28;20031;-51
2022/05/22 08:34:45;;;;;;;8.38;3.67;;;;;;;23.74;nan;101658.34;5055778;28;20069;-46
2022/05/22 08:37:10;;;;;;;7.15;3.10;;;;;;;23.83;nan;101660.38;5052173;28;20037;-48
2022/05/22 08:39:36;;;;;;;5.68;2.97;;;;;;;24.21;nan;101721.19;5052359;28;20037;-48
2022/05/22 08:42:08;;;;;;;6.47;3.60;;;;;;;24.01;nan;101661.69;5052177;28;20052;-51
2022/05/22 08:44:34;;;;;;;5.80;3.22;;;;;;;24.29;nan;101708.03;5052057;28;20052;-48
2022/05/22 08:47:20;;;;;;;5.85;3.00;;;;;;;24.60;nan;101704.72;5052434;28;20532;-48
2022/05/22 08:50:07;;;;;;;5.50;3.45;;;;;;;24.47;nan;101639.34;5051992;28;20040;-50
2022/05/22 08:52:55;;;;;;;8.35;4.15;;;;;;;24.68;nan;101691.50;5033844;28;20056;-47
2022/05/22 08:55:24;;;;;;;6.15;2.88;;;;;;;24.94;nan;101684.97;5051884;28;20423;-48
2022/05/22 09:00:42;;;;;;;4.28;2.05;;;;;;;24.58;nan;101685.97;5036865;28;20040;-49
2022/05/22 09:04:00;;;;;;;5.65;2.13;;;;;;;24.32;nan;101692.50;5034264;28;20037;-49
2022/05/22 09:06:31;;;;;;;6.45;1.88;;;;;;;24.17;nan;101642.56;4997003;28;20404;-52
2022/05/22 09:08:56;;;;;;;3.50;1.93;;;;;;;24.38;nan;101651.69;5034139;28;20033;-51
2022/05/22 09:11:45;;;;;;;5.15;1.70;;;;;;;24.91;nan;101674.44;5052256;28;20033;-45
2022/05/22 09:14:28;;;;;;;4.45;2.33;;;;;;;24.86;nan;101619.22;5034196;28;20032;-51
2022/05/22 09:17:10;;;;;;;6.38;2.40;;;;;;;25.34;nan;101674.53;5034003;28;20059;-48
2022/05/22 09:19:46;;;;;;;5.63;2.13;;;;;;;25.42;nan;101658.63;5051963;28;20044;-51
2022/05/22 09:22:28;;;;;;;5.93;2.50;;;;;;;25.40;nan;101636.31;5051819;28;20556;-48
2022/05/22 09:25:28;;;;;;;5.30;2.28;;;;;;;25.69;nan;101660.91;5051476;28;20092;-51
2022/05/22 09:28:21;;;;;;;5.97;2.27;;;;;;;25.89;nan;101645.78;5033877;28;20032;-49
2022/05/22 09:30:57;;;;;;;6.72;1.98;;;;;;;25.98;nan;101648.53;5017605;28;20329;-49
2022/05/22 09:33:53;;;;;;;4.93;2.10;;;;;;;26.11;nan;101654.63;5051652;28;20033;-48
2022/05/22 09:36:30;;;;;;;4.15;1.73;;;;;;;26.24;nan;101646.34;5051802;28;20116;-46
2022/05/22 09:39:10;;;;;;;4.85;2.45;;;;;;;26.19;nan;101645.91;5051356;28;20040;-48
2022/05/22 09:41:59;;;;;;;5.25;1.67;;;;;;;26.28;nan;101645.13;5049855;28;20072;-56
2022/05/22 09:45:01;;;;;;;4.35;1.55;;;;;;;26.39;nan;101642.34;5054733;28;20029;-54
2022/05/22 09:47:52;;;;;;;3.55;1.60;;;;;;;26.49;nan;101647.81;5056673;28;20544;-53
2022/05/22 09:50:27;;;;;;;4.22;1.60;;;;;;;26.56;nan;101652.53;5022782;28;20052;-52
2022/05/22 09:52:52;;;;;;;5.28;1.88;;;;;;;26.12;nan;101594.25;5051773;28;20044;-55
2022/05/22 09:55:27;;;;;;;3.72;1.23;;;;;;;26.22;nan;101614.13;5057805;28;20032;-55
2022/05/22 09:58:01;;;;;;;3.30;2.13;;;;;;;26.84;nan;101642.94;5067563;28;20039;-55
2022/05/22 10:00:40;;;;;;;2.55;1.65;;;;;;;26.71;nan;101591.81;5038833;28;20476;-55
2022/05/22 10:03:29;;;;;;;6.85;2.78;;;;;;;26.75;nan;101630.22;5059706;28;20033;-55
2022/05/22 10:06:05;;;;;;;3.17;1.77;;;;;;;26.88;nan;101644.41;5049619;28;20032;-55
2022/05/22 10:08:34;;;;;;;6.85;2.00;;;;;;;27.05;nan;101642.88;5041916;28;20036;-57
2022/05/22 10:11:12;;;;;;;5.45;1.92;;;;;;;27.02;nan;101638.63;5046049;28;20029;-57
2022/05/22 10:13:52;;;;;;;3.45;1.75;;;;;;;27.47;nan;101636.34;5052738;28;20082;-54
2022/05/22 10:16:30;;;;;;;6.37;2.27;;;;;;;27.55;nan;101582.44;5026478;28;20376;-52
2022/05/22 10:19:17;;;;;;;3.67;1.67;;;;;;;27.74;nan;101570.75;5046294;28;20037;-57
2022/05/22 10:21:54;;;;;;;4.18;1.65;;;;;;;28.42;nan;101626.56;5070773;28;20090;-56
2022/05/22 10:24:34;;;;;;;5.20;1.90;;;;;;;28.39;nan;101627.72;5059140;28;20044;-54
2022/05/22 10:27:08;;;;;;;5.40;2.15;;;;;;;28.40;nan;101621.28;5074291;28;20024;-55
2022/05/22 10:29:43;;;;;;;4.30;1.70;;;;;;;28.58;nan;101612.41;5069370;28;20037;-55
2022/05/22 10:32:18;;;;;;;6.85;2.15;;;;;;;28.53;nan;101574.94;5053961;28;20025;-58
2022/05/22 10:34:49;;;;;;;5.72;2.00;;;;;;;28.10;nan;101567.34;5056199;28;20020;-56
2022/05/22 10:37:39;;;;;;;3.40;1.70;;;;;;;28.24;nan;101601.22;5056072;28;20032;-56
2022/05/22 10:40:06;;;;;;;4.03;1.63;;;;;;;27.86;nan;101550.69;5056080;28;20090;-57
2022/05/22 10:42:49;;;;;;;4.00;1.73;;;;;;;28.22;nan;101543.69;5074081;28;20036;-56
2022/05/22 10:45:20;;;;;;;4.03;2.13;;;;;;;28.62;nan;101587.59;5058295;28;20043;-55
2022/05/22 10:47:46;;;;;;;4.72;2.45;;;;;;;28.60;nan;101551.69;5056004;28;20039;-58
2022/05/22 10:50:24;;;;;;;5.65;2.13;;;;;;;29.12;nan;101596.25;5073843;28;20037;-58
2022/05/22 10:52:49;;;;;;;4.47;2.20;;;;;;;29.07;nan;101586.88;5073742;28;20119;-54
2022/05/22 10:55:25;;;;;;;5.95;2.40;;;;;;;29.21;nan;101583.63;5074128;28;20575;-57
2022/05/22 10:57:58;;;;;;;4.60;1.88;;;;;;;29.39;nan;101563.69;5056288;28;20036;-59
2022/05/22 11:00:25;;;;;;;3.38;1.65;;;;;;;29.46;nan;101577.50;5073838;28;20035;-57
2022/05/22 11:02:50;;;;;;;2.92;1.50;;;;;;;29.53;nan;101563.19;5055728;28;20036;-58
2022/05/22 11:05:18;;;;;;;3.67;2.05;;;;;;;29.56;nan;101519.47;5055791;28;20086;-59
2022/05/22 11:07:51;;;;;;;2.88;1.80;;;;;;;29.98;nan;101564.94;5073754;28;20036;-59
2022/05/22 11:10:37;;;;;;;4.85;2.17;;;;;;;29.75;nan;101477.72;5055566;28;20056;-57
2022/05/22 11:13:08;;;;;;;4.53;2.00;;;;;;;29.68;nan;101549.94;5073389;28;20024;-59
2022/05/22 11:15:43;;;;;;;3.30;1.52;;;;;;;29.83;nan;101556.50;5073294;28;20128;-58
2022/05/22 11:18:10;;;;;;;5.28;2.08;;;;;;;30.11;nan;101557.25;5055557;28;20032;-58
2022/05/22 11:20:40;;;;;;;6.13;2.63;;;;;;;30.24;nan;101548.69;5072734;28;20102;-58
2022/05/22 11:23:20;;;;;;;6.15;2.78;;;;;;;30.28;nan;101553.63;5055363;28;20029;-58
2022/05/22 11:26:30;;;;;;;4.78;2.10;;;;;;;30.52;nan;101548.41;5056327;28;20032;-54
2022/05/22 11:29:18;;;;;;;5.22;2.53;;;;;;;30.79;nan;101555.50;5055394;28;20380;-58
2022/05/22 11:32:20;;;;;;;7.18;2.30;;;;;;;30.64;nan;101543.53;5073139;28;20033;-57
2022/05/22 11:35:01;;;;;;;5.97;2.45;;;;;;;30.65;nan;101539.78;5073209;28;20090;-57
2022/05/22 11:37:49;;;;;;;4.70;2.25;;;;;;;30.76;nan;101534.06;5073122;28;20020;-54
2022/05/22 11:40:27;;;;;;;6.50;2.10;;;;;;;31.05;nan;101530.97;5072519;28;20040;-56
2022/05/22 11:43:18;;;;;;;3.75;2.00;;;;;;;31.10;nan;101531.31;5072417;28;20464;-58
2022/05/22 11:46:02;;;;;;;4.85;1.98;;;;;;;31.01;nan;101480.66;5072714;28;20161;-56
2022/05/22 11:49:25;;;;;;;6.30;2.25;;;;;;;30.99;nan;101520.75;5054847;28;20372;-61
2022/05/22 11:52:05;;;;;;;6.07;2.60;;;;;;;30.46;nan;101504.72;4971619;28;20038;-56
2022/05/22 11:54:56;;;;;;;5.05;1.70;;;;;;;30.43;nan;101507.75;4971769;28;20394;-58
2022/05/22 11:57:59;;;;;;;4.60;1.83;;;;;;;30.88;nan;101502.00;5045663;28;20078;-58
2022/05/22 12:00:32;;;;;;;7.10;3.05;;;;;;;30.22;nan;101458.38;5004247;28;20040;-59